Time,TemperatureF,DewpointF,PressureIn,WindDirection,WindDirectionDegrees,WindSpeedMPH,WindSpeedGustMPH,Humidity,HourlyPrecipIn,Conditions,Clouds,dailyrainin,SoftwareType,DateUTC
2013-02-19 00:00:00,36.0,26.8,30.27,North,0,0.0,0.0,69,0.00,CLR,FEW,0.00,WeatherDisplay:10.37,2013-02-19 05:00:00,
2013-02-19 00:01:00,36.0,26.8,30.27,North,0,0.0,0.0,69,0.00,CLR,FEW,0.00,WeatherDisplay:10.37,2013-02-19 05:01:00,
2013-02-19 00:03:00,36.0,26.8,30.27,North,0,0.0,0.0,69,0.00,CLR,FEW,0.00,WeatherDisplay:10.37,2013-02-19 05:03:00,
2013-02-19 00:08:00,36.0,27.1,30.27,North,0,0.0,0.0,70,0.00,CLR,FEW,0.00,WeatherDisplay:10.37,2013-02-19 05:08:00,
2013-02-19 00:13:00,36.0,27.1,30.27,North,0,0.0,0.0,70,0.00,CLR,FEW,0.00,WeatherDisplay:10.37,2013-02-19 05:13:00,
2013-02-19 00:18:00,36.1,27.3,30.27,North,0,0.0,0.0,70,0.00,CLR,FEW,0.00,WeatherDisplay:10.37,2013-02-19 05:18:00,
2013-02-19 00:23:00,36.1,27.3,30.27,North,0,0.0,0.0,70,0.00,CLR,FEW,0.00,WeatherDisplay:10.37,2013-02-19 05:23:00,
2013-02-19 00:28:00,36.3,27.8,30.27,North,0,0.0,0.0,71,0.00,CLR,FEW,0.00,WeatherDisplay:10.37,2013-02-19 05:28:00,
2013-02-19 00:33:00,36.3,27.8,30.27,North,0,0.0,0.0,71,0.00,CLR,FEW,0.00,WeatherDisplay:10.37,2013-02-19 05:33:00,
2013-02-19 00:38:00,36.3,28.2,30.27,North,0,0.0,0.0,72,0.00,CLR,FEW,0.00,WeatherDisplay:10.37,2013-02-19 05:38:00,
2013-02-19 00:43:00,36.3,28.2,30.27,North,0,0.0,0.0,72,0.00,CLR,FEW,0.00,WeatherDisplay:10.37,2013-02-19 05:43:00,
2013-02-19 00:48:00,36.3,28.2,30.27,North,0,0.0,0.0,72,0.00,CLR,FEW,0.00,WeatherDisplay:10.37,2013-02-19 05:48:00,
2013-02-19 00:53:00,36.3,28.2,30.27,North,0,0.0,0.0,72,0.00,CLR,FEW,0.00,WeatherDisplay:10.37,2013-02-19 05:53:00,
2013-02-19 00:58:00,36.5,28.3,30.24,North,0,0.0,0.0,72,0.00,CLR,FEW,0.00,WeatherDisplay:10.37,2013-02-19 05:58:00,
2013-02-19 01:03:00,36.7,28.5,30.24,North,0,0.0,0.0,72,0.00,CLR,FEW,0.00,WeatherDisplay:10.37,2013-02-19 06:03:00,
2013-02-19 01:08:00,36.7,28.5,30.24,North,0,0.0,0.0,72,0.00,CLR,FEW,0.00,WeatherDisplay:10.37,2013-02-19 06:08:00,
2013-02-19 01:13:00,36.7,28.5,30.27,North,0,0.0,0.0,72,0.00,CLR,FEW,0.00,WeatherDisplay:10.37,2013-02-19 06:13:00,
2013-02-19 01:18:00,36.7,28.8,30.27,North,0,0.0,0.0,73,0.00,CLR,FEW,0.00,WeatherDisplay:10.37,2013-02-19 06:18:00,
2013-02-19 01:23:00,36.5,28.7,30.27,North,0,0.0,0.0,73,0.00,CLR,FEW,0.00,WeatherDisplay:10.37,2013-02-19 06:23:00,
2013-02-19 01:28:00,36.5,28.7,30.24,North,0,0.0,0.0,73,0.00,CLR,FEW,0.00,WeatherDisplay:10.37,2013-02-19 06:28:00,
2013-02-19 01:33:00,36.5,28.7,30.24,North,0,0.0,0.0,73,0.00,CLR,FEW,0.00,WeatherDisplay:10.37,2013-02-19 06:33:00,
2013-02-19 01:38:00,36.5,28.7,30.24,North,0,0.0,0.0,73,0.00,CLR,FEW,0.00,WeatherDisplay:10.37,2013-02-19 06:38:00,
2013-02-19 01:43:00,36.3,28.8,30.24,North,0,0.0,0.0,74,0.00,CLR,FEW,0.00,WeatherDisplay:10.37,2013-02-19 06:43:00,
2013-02-19 01:48:00,36.5,29.0,30.24,North,0,0.0,0.0,74,0.00,CLR,FEW,0.00,WeatherDisplay:10.37,2013-02-19 06:48:00,
2013-02-19 01:53:00,36.5,29.0,30.24,North,0,0.0,0.0,74,0.00,CLR,FEW,0.00,WeatherDisplay:10.37,2013-02-19 06:53:00,
2013-02-19 01:58:00,36.5,29.0,30.24,North,0,0.0,0.0,74,0.00,CLR,FEW,0.00,WeatherDisplay:10.37,2013-02-19 06:58:00,
2013-02-19 02:03:00,36.3,28.8,30.24,North,0,0.0,0.0,74,0.00,CLR,FEW,0.00,WeatherDisplay:10.37,2013-02-19 07:03:00,
2013-02-19 02:08:00,36.3,29.2,30.24,North,0,0.0,0.0,75,0.00,CLR,FEW,0.00,WeatherDisplay:10.37,2013-02-19 07:08:00,
2013-02-19 02:13:00,36.3,29.5,30.24,North,0,0.0,0.0,76,0.00,CLR,FEW,0.00,WeatherDisplay:10.37,2013-02-19 07:13:00,
2013-02-19 02:18:00,36.3,29.5,30.24,North,0,0.0,0.0,76,0.00,CLR,FEW,0.00,WeatherDisplay:10.37,2013-02-19 07:18:00,
2013-02-19 02:23:00,36.3,29.5,30.24,North,0,0.0,0.0,76,0.00,CLR,FEW,0.00,WeatherDisplay:10.37,2013-02-19 07:23:00,
2013-02-19 02:28:00,36.3,29.5,30.24,North,0,0.0,0.0,76,0.00,CLR,FEW,0.00,WeatherDisplay:10.37,2013-02-19 07:28:00,
2013-02-19 02:33:00,36.3,29.5,30.24,North,0,0.0,0.0,76,0.00,CLR,FEW,0.00,WeatherDisplay:10.37,2013-02-19 07:33:00,
2013-02-19 02:38:00,36.3,29.8,30.24,North,0,0.0,0.0,77,0.00,CLR,FEW,0.00,WeatherDisplay:10.37,2013-02-19 07:38:00,
2013-02-19 02:43:00,36.3,29.8,30.21,North,0,0.0,0.0,77,0.00,CLR,FEW,0.00,WeatherDisplay:10.37,2013-02-19 07:43:00,
2013-02-19 02:48:00,36.3,29.8,30.21,North,0,0.0,0.0,77,0.00,CLR,FEW,0.00,WeatherDisplay:10.37,2013-02-19 07:48:00,
2013-02-19 02:53:00,36.5,30.0,30.21,North,0,0.0,0.0,77,0.00,CLR,FEW,0.00,WeatherDisplay:10.37,2013-02-19 07:53:00,
2013-02-19 02:58:00,36.7,30.1,30.21,North,0,0.0,0.0,77,0.00,CLR,FEW,0.00,WeatherDisplay:10.37,2013-02-19 07:58:00,
2013-02-19 03:03:00,36.7,30.5,30.21,North,0,0.0,0.0,78,0.00,CLR,FEW,0.00,WeatherDisplay:10.37,2013-02-19 08:03:00,
2013-02-19 03:08:00,36.9,30.6,30.21,North,0,0.0,0.0,78,0.00,CLR,FEW,0.00,WeatherDisplay:10.37,2013-02-19 08:08:00,
2013-02-19 03:13:00,36.9,30.6,30.21,North,0,0.0,0.0,78,0.00,CLR,FEW,0.00,WeatherDisplay:10.37,2013-02-19 08:13:00,
2013-02-19 03:18:00,37.0,30.8,30.21,North,0,0.0,0.0,78,0.00,CLR,FEW,0.00,WeatherDisplay:10.37,2013-02-19 08:18:00,
2013-02-19 03:23:00,37.0,30.8,30.21,North,0,0.0,0.0,78,0.00,CLR,FEW,0.00,WeatherDisplay:10.37,2013-02-19 08:23:00,
2013-02-19 03:28:00,36.9,30.6,30.18,North,0,0.0,0.0,78,0.00,CLR,FEW,0.00,WeatherDisplay:10.37,2013-02-19 08:28:00,
2013-02-19 03:33:00,37.0,30.8,30.18,North,0,0.0,0.0,78,0.00,CLR,FEW,0.00,WeatherDisplay:10.37,2013-02-19 08:33:00,
2013-02-19 03:38:00,37.0,30.8,30.18,North,0,0.0,0.0,78,0.00,CLR,FEW,0.00,WeatherDisplay:10.37,2013-02-19 08:38:00,
2013-02-19 03:43:00,37.0,30.8,30.18,North,0,0.0,0.0,78,0.00,CLR,FEW,0.00,WeatherDisplay:10.37,2013-02-19 08:43:00,
2013-02-19 03:48:00,37.0,30.8,30.18,North,0,0.0,0.0,78,0.00,CLR,FEW,0.00,WeatherDisplay:10.37,2013-02-19 08:48:00,
2013-02-19 03:53:00,37.0,30.8,30.18,North,0,0.0,0.0,78,0.00,CLR,FEW,0.00,WeatherDisplay:10.37,2013-02-19 08:53:00,
2013-02-19 03:58:00,37.0,30.8,30.18,North,0,0.0,0.0,78,0.00,CLR,FEW,0.00,WeatherDisplay:10.37,2013-02-19 08:58:00,
2013-02-19 04:03:00,37.2,31.3,30.18,North,0,0.0,0.0,79,0.00,CLR,FEW,0.00,WeatherDisplay:10.37,2013-02-19 09:03:00,
2013-02-19 04:08:00,37.2,31.3,30.18,North,0,0.0,0.0,79,0.00,CLR,FEW,0.00,WeatherDisplay:10.37,2013-02-19 09:08:00,
2013-02-19 04:13:00,37.6,31.3,30.18,North,0,0.0,0.0,78,0.00,CLR,FEW,0.00,WeatherDisplay:10.37,2013-02-19 09:13:00,
2013-02-19 04:18:00,37.8,31.8,30.18,North,0,0.0,0.0,79,0.00,CLR,FEW,0.00,WeatherDisplay:10.37,2013-02-19 09:18:00,
2013-02-19 04:23:00,38.5,32.8,30.18,North,0,0.0,0.0,80,0.00,CLR,FEW,0.00,WeatherDisplay:10.37,2013-02-19 09:23:00,
2013-02-19 04:28:00,39.7,34.7,30.15,North,0,0.0,0.0,82,0.00,CLR,FEW,0.00,WeatherDisplay:10.37,2013-02-19 09:28:00,
2013-02-19 04:33:00,42.6,38.1,30.15,North,0,0.0,0.0,84,0.00,CLR,FEW,0.00,WeatherDisplay:10.37,2013-02-19 09:33:00,
2013-02-19 04:38:00,43.3,38.5,30.15,North,0,0.0,0.0,83,0.00,CLR,FEW,0.00,WeatherDisplay:10.37,2013-02-19 09:38:00,
2013-02-19 04:43:00,43.7,38.9,30.15,North,0,0.0,0.0,83,0.00,CLR,FEW,0.00,WeatherDisplay:10.37,2013-02-19 09:43:00,
2013-02-19 04:48:00,43.0,37.9,30.15,North,0,0.0,0.0,82,0.00,CLR,FEW,0.00,WeatherDisplay:10.37,2013-02-19 09:48:00,
2013-02-19 04:53:00,42.3,36.8,30.15,North,0,0.0,0.0,81,0.00,CLR,FEW,0.00,WeatherDisplay:10.37,2013-02-19 09:53:00,
2013-02-19 04:58:00,42.3,37.2,30.15,North,0,0.0,0.0,82,0.00,CLR,FEW,0.00,WeatherDisplay:10.37,2013-02-19 09:58:00,
2013-02-19 05:03:00,42.3,37.2,30.15,North,0,0.0,0.0,82,0.00,CLR,FEW,0.00,WeatherDisplay:10.37,2013-02-19 10:03:00,
2013-02-19 05:08:00,42.3,37.2,30.15,North,0,0.0,0.0,82,0.00,CLR,FEW,0.00,WeatherDisplay:10.37,2013-02-19 10:08:00,
2013-02-19 05:13:00,42.3,37.2,30.15,North,0,0.0,0.0,82,0.00,CLR,FEW,0.00,WeatherDisplay:10.37,2013-02-19 10:13:00,
2013-02-19 05:19:00,42.8,38.0,30.15,North,0,0.0,0.0,83,0.00,CLR,FEW,0.00,WeatherDisplay:10.37,2013-02-19 10:19:00,
2013-02-19 05:24:00,43.5,39.0,30.15,North,0,0.0,0.0,84,0.00,CLR,FEW,0.00,WeatherDisplay:10.37,2013-02-19 10:24:00,
2013-02-19 05:30:00,43.3,38.5,30.15,North,0,0.0,0.0,83,0.00,CLR,FEW,0.00,WeatherDisplay:10.37,2013-02-19 10:30:00,
2013-02-19 05:35:00,43.2,38.3,30.15,North,0,0.0,0.0,83,0.00,CLR,FEW,0.00,WeatherDisplay:10.37,2013-02-19 10:35:00,
2013-02-19 05:41:00,43.0,38.2,30.15,North,0,0.0,0.0,83,0.00,CLR,FEW,0.00,WeatherDisplay:10.37,2013-02-19 10:41:00,
2013-02-19 05:47:00,42.8,38.3,30.15,North,0,0.0,0.0,84,0.00,CLR,FEW,0.00,WeatherDisplay:10.37,2013-02-19 10:47:00,
2013-02-19 05:52:00,42.4,37.9,30.15,North,0,0.0,0.0,84,0.00,CLR,FEW,0.00,WeatherDisplay:10.37,2013-02-19 10:52:00,
2013-02-19 05:57:00,42.3,37.8,30.15,North,0,0.0,0.0,84,0.00,CLR,FEW,0.00,WeatherDisplay:10.37,2013-02-19 10:57:00,
2013-02-19 06:02:00,42.3,38.1,30.15,North,0,0.0,0.0,85,0.00,CLR,FEW,0.00,WeatherDisplay:10.37,2013-02-19 11:02:00,
2013-02-19 06:07:00,42.3,38.1,30.15,North,0,0.0,0.0,85,0.00,CLR,FEW,0.00,WeatherDisplay:10.37,2013-02-19 11:07:00,
2013-02-19 06:13:00,42.1,37.9,30.15,North,0,0.0,0.0,85,0.00,CLR,FEW,0.00,WeatherDisplay:10.37,2013-02-19 11:13:00,
2013-02-19 06:18:00,42.1,37.9,30.15,North,0,0.0,0.0,85,0.00,CLR,FEW,0.00,WeatherDisplay:10.37,2013-02-19 11:18:00,
2013-02-19 06:23:00,42.3,38.1,30.15,North,0,0.0,0.0,85,0.00,CLR,FEW,0.00,WeatherDisplay:10.37,2013-02-19 11:23:00,
2013-02-19 06:29:00,42.4,38.5,30.15,North,0,0.0,0.0,86,0.00,CLR,FEW,0.00,WeatherDisplay:10.37,2013-02-19 11:29:00,
2013-02-19 06:34:00,42.3,38.4,30.15,North,0,0.0,0.0,86,0.00,CLR,FEW,0.00,WeatherDisplay:10.37,2013-02-19 11:34:00,
2013-02-19 06:39:00,42.3,38.4,30.15,North,0,0.0,0.0,86,0.00,CLR,FEW,0.00,WeatherDisplay:10.37,2013-02-19 11:39:00,
2013-02-19 06:44:00,42.3,38.4,30.15,North,0,0.0,0.0,86,0.00,CLR,FEW,0.00,WeatherDisplay:10.37,2013-02-19 11:44:00,
2013-02-19 06:49:00,42.3,38.4,30.15,North,0,0.0,0.0,86,0.00,CLR,FEW,0.00,WeatherDisplay:10.37,2013-02-19 11:49:00,
2013-02-19 06:54:00,42.3,38.4,30.15,North,0,0.0,0.0,86,0.00,CLR,FEW,0.00,WeatherDisplay:10.37,2013-02-19 11:54:00,
2013-02-19 06:59:00,42.3,38.4,30.12,North,0,0.0,0.0,86,0.00,CLR,FEW,0.00,WeatherDisplay:10.37,2013-02-19 11:59:00,
2013-02-19 07:04:00,42.3,38.7,30.12,North,0,0.0,0.0,87,0.00,CLR,FEW,0.00,WeatherDisplay:10.37,2013-02-19 12:04:00,
2013-02-19 07:10:00,42.3,38.7,30.12,North,0,0.0,0.0,87,0.00,CLR,FEW,0.00,WeatherDisplay:10.37,2013-02-19 12:10:00,
2013-02-19 07:15:00,42.3,38.7,30.12,North,0,0.0,0.0,87,0.00,CLR,FEW,0.00,WeatherDisplay:10.37,2013-02-19 12:15:00,
2013-02-19 07:21:00,42.3,38.7,30.12,North,0,0.0,0.0,87,0.00,CLR,FEW,0.00,WeatherDisplay:10.37,2013-02-19 12:21:00,
2013-02-19 07:26:00,42.4,38.8,30.12,North,0,0.0,0.0,87,0.00,CLR,FEW,0.00,WeatherDisplay:10.37,2013-02-19 12:26:00,
2013-02-19 07:31:00,42.6,39.0,30.12,North,0,0.0,0.0,87,0.00,CLR,FEW,0.00,WeatherDisplay:10.37,2013-02-19 12:31:00,
2013-02-19 07:37:00,43.2,39.6,30.12,North,0,0.0,0.0,87,0.00,CLR,FEW,0.00,WeatherDisplay:10.37,2013-02-19 12:37:00,
2013-02-19 07:42:00,43.9,40.6,30.12,North,0,0.0,0.0,88,0.00,CLR,FEW,0.00,WeatherDisplay:10.37,2013-02-19 12:42:00,
2013-02-19 07:47:00,44.8,41.7,30.12,North,0,0.0,0.0,89,0.00,CLR,FEW,0.00,WeatherDisplay:10.37,2013-02-19 12:47:00,
2013-02-19 07:52:00,46.0,43.3,30.12,North,0,0.0,0.0,90,0.00,CLR,FEW,0.00,WeatherDisplay:10.37,2013-02-19 12:52:00,
2013-02-19 07:57:00,46.9,44.2,30.12,North,0,0.0,0.0,90,0.00,CLR,FEW,0.00,WeatherDisplay:10.37,2013-02-19 12:57:00,
2013-02-19 08:02:00,47.5,44.7,30.12,North,0,0.0,0.0,90,0.00,CLR,FEW,0.00,WeatherDisplay:10.37,2013-02-19 13:02:00,
2013-02-19 08:07:00,48.2,45.7,30.12,North,0,0.0,0.0,91,0.00,CLR,FEW,0.00,WeatherDisplay:10.37,2013-02-19 13:07:00,
2013-02-19 08:12:00,49.1,46.6,30.12,North,0,0.0,0.0,91,0.00,CLR,FEW,0.00,WeatherDisplay:10.37,2013-02-19 13:12:00,
2013-02-19 08:17:00,49.8,47.3,30.12,North,0,0.0,0.0,91,0.00,CLR,FEW,0.00,WeatherDisplay:10.37,2013-02-19 13:17:00,
2013-02-19 08:22:00,50.5,48.0,30.12,North,0,0.0,0.0,91,0.00,CLR,FEW,0.00,WeatherDisplay:10.37,2013-02-19 13:22:00,
2013-02-19 08:27:00,51.4,49.2,30.12,North,0,0.0,0.0,92,0.00,CLR,FEW,0.00,WeatherDisplay:10.37,2013-02-19 13:27:00,
2013-02-19 08:32:00,52.5,50.3,30.12,North,0,0.0,0.0,92,0.00,CLR,FEW,0.00,WeatherDisplay:10.37,2013-02-19 13:32:00,
2013-02-19 08:37:00,53.6,51.3,30.12,North,0,0.0,0.0,92,0.00,CLR,FEW,0.00,WeatherDisplay:10.37,2013-02-19 13:37:00,
2013-02-19 08:43:00,54.5,52.2,30.12,North,0,0.0,0.0,92,0.00,CLR,FEW,0.00,WeatherDisplay:10.37,2013-02-19 13:43:00,
2013-02-19 08:48:00,55.0,52.8,30.12,North,0,0.0,0.0,92,0.00,CLR,FEW,0.00,WeatherDisplay:10.37,2013-02-19 13:48:00,
2013-02-19 08:53:00,55.6,53.3,30.12,North,0,0.0,0.0,92,0.00,CLR,FEW,0.00,WeatherDisplay:10.37,2013-02-19 13:53:00,
2013-02-19 08:58:00,55.9,53.4,30.12,North,0,0.0,0.0,91,0.00,CLR,FEW,0.00,WeatherDisplay:10.37,2013-02-19 13:58:00,
2013-02-19 09:03:00,56.1,52.9,30.12,North,0,0.0,0.0,89,0.00,CLR,FEW,0.00,WeatherDisplay:10.37,2013-02-19 14:03:00,
2013-02-19 09:08:00,56.7,51.6,30.12,North,0,0.0,0.0,83,0.00,CLR,FEW,0.00,WeatherDisplay:10.37,2013-02-19 14:08:00,
2013-02-19 09:13:00,57.2,48.6,30.12,North,0,0.0,0.0,73,0.00,CLR,FEW,0.00,WeatherDisplay:10.37,2013-02-19 14:13:00,
2013-02-19 09:18:00,58.1,46.4,30.12,North,0,0.0,0.0,65,0.00,CLR,FEW,0.00,WeatherDisplay:10.37,2013-02-19 14:18:00,
2013-02-19 09:23:00,58.8,42.7,30.12,North,0,0.0,0.0,55,0.00,CLR,FEW,0.00,WeatherDisplay:10.37,2013-02-19 14:23:00,
2013-02-19 09:28:00,59.4,39.7,30.12,North,0,0.0,0.0,48,0.00,CLR,FEW,0.00,WeatherDisplay:10.37,2013-02-19 14:28:00,
2013-02-19 09:33:00,59.4,39.1,30.12,North,0,0.0,0.0,47,0.00,CLR,FEW,0.00,WeatherDisplay:10.37,2013-02-19 14:33:00,
2013-02-19 09:38:00,59.4,38.6,30.12,North,0,0.0,0.0,46,0.00,CLR,FEW,0.00,WeatherDisplay:10.37,2013-02-19 14:38:00,
2013-02-19 09:43:00,59.2,38.4,30.12,North,0,0.0,0.0,46,0.00,CLR,FEW,0.00,WeatherDisplay:10.37,2013-02-19 14:43:00,
2013-02-19 09:48:00,59.2,38.9,30.12,North,0,0.0,0.0,47,0.00,CLR,FEW,0.00,WeatherDisplay:10.37,2013-02-19 14:48:00,
2013-02-19 09:53:00,59.4,39.1,30.12,North,0,0.0,0.0,47,0.00,CLR,FEW,0.00,WeatherDisplay:10.37,2013-02-19 14:53:00,
2013-02-19 09:58:00,59.7,38.9,30.12,North,0,0.0,0.0,46,0.00,CLR,FEW,0.00,WeatherDisplay:10.37,2013-02-19 14:58:00,
2013-02-19 10:03:00,60.1,38.7,30.12,North,0,0.0,0.0,45,0.00,CLR,FEW,0.00,WeatherDisplay:10.37,2013-02-19 15:03:00,
2013-02-19 10:08:00,60.3,38.8,30.12,North,0,0.0,0.0,45,0.00,CLR,FEW,0.00,WeatherDisplay:10.37,2013-02-19 15:08:00,
2013-02-19 10:13:00,60.6,39.1,30.12,North,0,0.0,0.0,45,0.00,CLR,FEW,0.00,WeatherDisplay:10.37,2013-02-19 15:13:00,
2013-02-19 10:18:00,61.0,37.1,30.12,North,0,0.0,0.0,41,0.00,CLR,FEW,0.00,WeatherDisplay:10.37,2013-02-19 15:18:00,
2013-02-19 10:23:00,61.5,36.3,30.12,North,0,0.0,0.0,39,0.00,CLR,FEW,0.00,WeatherDisplay:10.37,2013-02-19 15:23:00,
2013-02-19 10:28:00,61.7,35.8,30.09,North,0,0.0,0.0,38,0.00,CLR,FEW,0.00,WeatherDisplay:10.37,2013-02-19 15:28:00,
2013-02-19 10:33:00,61.9,35.3,30.09,North,0,0.0,0.0,37,0.00,CLR,FEW,0.00,WeatherDisplay:10.37,2013-02-19 15:33:00,
2013-02-19 10:38:00,61.9,36.0,30.09,North,0,0.0,0.0,38,0.00,CLR,FEW,0.00,WeatherDisplay:10.37,2013-02-19 15:38:00,
2013-02-19 10:43:00,61.2,36.0,30.09,North,0,0.0,0.0,39,0.00,CLR,FEW,0.00,WeatherDisplay:10.37,2013-02-19 15:43:00,
2013-02-19 10:48:00,60.8,36.3,30.09,North,0,0.0,0.0,40,0.00,CLR,FEW,0.00,WeatherDisplay:10.37,2013-02-19 15:48:00,
2013-02-19 10:53:00,60.8,36.3,30.09,North,0,0.0,0.0,40,0.00,CLR,FEW,0.00,WeatherDisplay:10.37,2013-02-19 15:53:00,
2013-02-19 10:58:00,61.0,36.5,30.09,North,0,0.0,0.0,40,0.00,CLR,FEW,0.00,WeatherDisplay:10.37,2013-02-19 15:58:00,
2013-02-19 11:03:00,61.2,36.0,30.09,North,0,0.0,0.0,39,0.00,CLR,FEW,0.00,WeatherDisplay:10.37,2013-02-19 16:03:00,
2013-02-19 11:08:00,61.3,35.5,30.09,North,0,0.0,0.0,38,0.00,CLR,FEW,0.00,WeatherDisplay:10.37,2013-02-19 16:08:00,
2013-02-19 11:13:00,61.5,35.7,30.09,North,0,0.0,0.0,38,0.00,CLR,FEW,0.00,WeatherDisplay:10.37,2013-02-19 16:13:00,
2013-02-19 11:18:00,61.7,35.8,30.09,North,0,0.0,0.0,38,0.00,CLR,FEW,0.00,WeatherDisplay:10.37,2013-02-19 16:18:00,
2013-02-19 11:23:00,61.9,35.3,30.09,North,0,0.0,0.0,37,0.00,CLR,FEW,0.00,WeatherDisplay:10.37,2013-02-19 16:23:00,
2013-02-19 11:28:00,61.9,35.3,30.06,North,0,0.0,0.0,37,0.00,CLR,FEW,0.00,WeatherDisplay:10.37,2013-02-19 16:28:00,
2013-02-19 11:33:00,61.3,35.5,30.06,North,0,0.0,0.0,38,0.00,CLR,FEW,0.00,WeatherDisplay:10.37,2013-02-19 16:33:00,
2013-02-19 11:38:00,60.4,36.6,30.06,North,0,0.0,0.0,41,0.00,CLR,FEW,0.00,WeatherDisplay:10.37,2013-02-19 16:38:00,
2013-02-19 11:43:00,59.7,37.8,30.06,North,0,0.0,0.0,44,0.00,CLR,FEW,0.00,WeatherDisplay:10.37,2013-02-19 16:43:00,
2013-02-19 11:48:00,59.4,37.4,30.06,North,0,0.0,0.0,44,0.00,CLR,FEW,0.00,WeatherDisplay:10.37,2013-02-19 16:48:00,
2013-02-19 11:53:00,59.0,37.7,30.06,North,0,0.0,0.0,45,0.00,CLR,FEW,0.00,WeatherDisplay:10.37,2013-02-19 16:53:00,
2013-02-19 11:58:00,58.5,38.3,30.06,North,0,0.0,0.0,47,0.00,CLR,FEW,0.00,WeatherDisplay:10.37,2013-02-19 16:58:00,
2013-02-19 12:03:00,58.1,38.5,30.06,North,0,0.0,0.0,48,0.00,CLR,FEW,0.00,WeatherDisplay:10.37,2013-02-19 17:03:00,
2013-02-19 12:08:00,58.1,39.5,30.06,North,0,0.0,0.0,50,0.00,CLR,FEW,0.00,WeatherDisplay:10.37,2013-02-19 17:08:00,
2013-02-19 12:13:00,58.3,40.2,30.06,North,0,0.0,0.0,51,0.00,CLR,FEW,0.00,WeatherDisplay:10.37,2013-02-19 17:13:00,
2013-02-19 12:18:00,58.6,40.6,30.06,North,0,0.0,0.0,51,0.00,CLR,FEW,0.00,WeatherDisplay:10.37,2013-02-19 17:18:00,
2013-02-19 12:23:00,58.8,40.2,30.06,North,0,0.0,0.0,50,0.00,CLR,FEW,0.00,WeatherDisplay:10.37,2013-02-19 17:23:00,
2013-02-19 12:28:00,59.2,40.0,30.03,North,0,0.0,0.0,49,0.00,CLR,FEW,0.00,WeatherDisplay:10.37,2013-02-19 17:28:00,
2013-02-19 12:33:00,59.4,40.2,30.03,North,0,0.0,0.0,49,0.00,CLR,FEW,0.00,WeatherDisplay:10.37,2013-02-19 17:33:00,
2013-02-19 12:38:00,59.7,40.5,30.03,North,0,0.0,0.0,49,0.00,CLR,FEW,0.00,WeatherDisplay:10.37,2013-02-19 17:38:00,
2013-02-19 12:44:00,59.9,40.1,30.03,North,0,0.0,0.0,48,0.00,CLR,FEW,0.00,WeatherDisplay:10.37,2013-02-19 17:44:00,
2013-02-19 12:50:00,60.3,40.5,30.03,North,0,0.0,0.0,48,0.00,CLR,FEW,0.00,WeatherDisplay:10.37,2013-02-19 17:50:00,
2013-02-19 12:55:00,60.1,40.3,30.03,North,0,0.0,0.0,48,0.00,CLR,FEW,0.00,WeatherDisplay:10.37,2013-02-19 17:55:00,
2013-02-19 13:00:00,59.9,40.7,30.03,North,0,0.0,0.0,49,0.00,CLR,FEW,0.00,WeatherDisplay:10.37,2013-02-19 18:00:00,
2013-02-19 13:05:00,59.9,41.2,30.03,North,0,0.0,0.0,50,0.00,CLR,FEW,0.00,WeatherDisplay:10.37,2013-02-19 18:05:00,
2013-02-19 13:10:00,60.3,42.0,30.03,North,0,0.0,0.0,51,0.00,CLR,FEW,0.00,WeatherDisplay:10.37,2013-02-19 18:10:00,
2013-02-19 13:15:00,61.2,41.3,30.00,North,0,0.0,0.0,48,0.00,CLR,FEW,0.00,WeatherDisplay:10.37,2013-02-19 18:15:00,
2013-02-19 13:20:00,62.1,39.9,30.00,North,0,0.0,0.0,44,0.00,CLR,FEW,0.00,WeatherDisplay:10.37,2013-02-19 18:20:00,
2013-02-19 13:25:00,62.6,38.6,30.00,North,0,0.0,0.0,41,0.00,CLR,FEW,0.00,WeatherDisplay:10.37,2013-02-19 18:25:00,
2013-02-19 13:30:00,62.4,38.4,30.00,North,0,0.0,0.0,41,0.00,CLR,FEW,0.00,WeatherDisplay:10.37,2013-02-19 18:30:00,
2013-02-19 13:35:00,62.1,38.7,30.00,North,0,0.0,0.0,42,0.00,CLR,FEW,0.00,WeatherDisplay:10.37,2013-02-19 18:35:00,
2013-02-19 13:40:00,61.7,39.6,30.00,North,0,0.0,0.0,44,0.00,CLR,FEW,0.00,WeatherDisplay:10.37,2013-02-19 18:40:00,
2013-02-19 13:45:00,61.3,40.4,30.00,North,0,0.0,0.0,46,0.00,CLR,FEW,0.00,WeatherDisplay:10.37,2013-02-19 18:45:00,
2013-02-19 13:50:00,60.8,39.9,30.00,North,0,0.0,0.0,46,0.00,CLR,FEW,0.00,WeatherDisplay:10.37,2013-02-19 18:50:00,
2013-02-19 13:55:00,60.4,40.1,30.00,North,0,0.0,0.0,47,0.00,CLR,FEW,0.00,WeatherDisplay:10.37,2013-02-19 18:55:00,
2013-02-19 14:00:00,60.1,40.8,30.00,North,0,0.0,0.0,49,0.00,CLR,FEW,0.00,WeatherDisplay:10.37,2013-02-19 19:00:00,
2013-02-19 14:05:00,60.1,41.9,30.00,North,0,0.0,0.0,51,0.00,CLR,FEW,0.00,WeatherDisplay:10.37,2013-02-19 19:05:00,
2013-02-19 14:10:00,59.9,42.7,30.00,North,0,0.0,0.0,53,0.00,CLR,FEW,0.00,WeatherDisplay:10.37,2013-02-19 19:10:00,
2013-02-19 14:15:00,59.7,43.0,29.97,North,0,0.0,0.0,54,0.00,CLR,FEW,0.00,WeatherDisplay:10.37,2013-02-19 19:15:00,
2013-02-19 14:20:00,59.7,43.0,29.97,North,0,0.0,0.0,54,0.00,CLR,FEW,0.00,WeatherDisplay:10.37,2013-02-19 19:20:00,
2013-02-19 14:25:00,59.7,43.0,29.97,North,0,0.0,0.0,54,0.00,CLR,FEW,0.00,WeatherDisplay:10.37,2013-02-19 19:25:00,
2013-02-19 14:30:00,59.7,42.6,29.97,North,0,0.0,0.0,53,0.00,CLR,FEW,0.00,WeatherDisplay:10.37,2013-02-19 19:30:00,
2013-02-19 14:35:00,59.7,42.6,29.97,North,0,0.0,0.0,53,0.00,CLR,FEW,0.00,WeatherDisplay:10.37,2013-02-19 19:35:00,
2013-02-19 14:40:00,59.7,42.6,29.97,North,0,0.0,0.0,53,0.00,CLR,FEW,0.00,WeatherDisplay:10.37,2013-02-19 19:40:00,
2013-02-19 14:45:00,59.5,42.4,29.97,North,0,0.0,0.0,53,0.00,CLR,FEW,0.00,WeatherDisplay:10.37,2013-02-19 19:45:00,
2013-02-19 14:50:00,59.7,42.6,29.97,North,0,0.0,0.0,53,0.00,CLR,FEW,0.00,WeatherDisplay:10.37,2013-02-19 19:50:00,
2013-02-19 14:56:00,59.9,42.7,29.97,North,0,0.0,0.0,53,0.00,CLR,FEW,0.00,WeatherDisplay:10.37,2013-02-19 19:56:00,
2013-02-19 15:01:00,59.9,42.7,29.97,North,0,0.0,0.0,53,0.00,CLR,FEW,0.00,WeatherDisplay:10.37,2013-02-19 20:01:00,
2013-02-19 15:06:00,60.1,43.4,29.97,North,0,0.0,0.0,54,0.00,CLR,FEW,0.00,WeatherDisplay:10.37,2013-02-19 20:06:00,
2013-02-19 15:11:00,59.9,44.2,29.97,North,0,0.0,0.0,56,0.00,CLR,FEW,0.00,WeatherDisplay:10.37,2013-02-19 20:11:00,
2013-02-19 15:16:00,59.7,44.0,29.97,North,0,0.0,0.0,56,0.00,CLR,FEW,0.00,WeatherDisplay:10.37,2013-02-19 20:16:00,
2013-02-19 15:21:00,59.7,46.2,29.97,North,0,0.0,0.0,61,0.00,CLR,FEW,0.00,WeatherDisplay:10.37,2013-02-19 20:21:00,
2013-02-19 15:26:00,59.4,47.6,29.97,North,0,0.0,0.0,65,0.00,CLR,FEW,0.00,WeatherDisplay:10.37,2013-02-19 20:26:00,
2013-02-19 15:31:00,59.0,48.4,29.97,North,0,0.0,0.0,68,0.00,CLR,FEW,0.00,WeatherDisplay:10.37,2013-02-19 20:31:00,
2013-02-19 15:36:00,58.6,49.3,29.97,North,0,0.0,0.0,71,0.04,RA,FEW,0.04,WeatherDisplay:10.37,2013-02-19 20:36:00,
2013-02-19 15:41:00,58.3,50.4,29.97,North,0,0.0,0.0,75,0.04,RA,FEW,0.04,WeatherDisplay:10.37,2013-02-19 20:41:00,
2013-02-19 15:46:00,58.1,51.3,29.94,North,0,0.0,0.0,78,0.04,,FEW,0.04,WeatherDisplay:10.37,2013-02-19 20:46:00,
2013-02-19 15:51:00,58.1,51.6,29.94,North,0,0.0,0.0,79,0.04,CLR,FEW,0.04,WeatherDisplay:10.37,2013-02-19 20:51:00,
2013-02-19 15:56:00,58.1,52.3,29.94,North,0,0.0,0.0,81,0.04,CLR,FEW,0.04,WeatherDisplay:10.37,2013-02-19 20:56:00,
2013-02-19 16:01:00,58.1,52.6,29.94,North,0,0.0,0.0,82,0.04,CLR,FEW,0.04,WeatherDisplay:10.37,2013-02-19 21:01:00,
2013-02-19 16:06:00,58.1,52.6,29.94,North,0,0.0,0.0,82,0.04,CLR,FEW,0.04,WeatherDisplay:10.37,2013-02-19 21:06:00,
2013-02-19 16:11:00,58.1,53.0,29.94,North,0,0.0,0.0,83,0.04,CLR,FEW,0.04,WeatherDisplay:10.37,2013-02-19 21:11:00,
2013-02-19 16:16:00,58.1,53.3,29.94,North,0,0.0,0.0,84,0.04,CLR,FEW,0.04,WeatherDisplay:10.37,2013-02-19 21:16:00,
2013-02-19 16:21:00,58.1,53.6,29.94,North,0,0.0,0.0,85,0.04,CLR,FEW,0.04,WeatherDisplay:10.37,2013-02-19 21:21:00,
2013-02-19 16:26:00,58.1,53.9,29.94,North,0,0.0,0.0,86,0.04,CLR,FEW,0.04,WeatherDisplay:10.37,2013-02-19 21:26:00,
2013-02-19 16:31:00,58.1,54.2,29.94,North,0,0.0,0.0,87,0.04,CLR,FEW,0.04,WeatherDisplay:10.37,2013-02-19 21:31:00,
2013-02-19 16:36:00,58.1,54.2,29.94,North,0,0.0,0.0,87,0.00,CLR,FEW,0.04,WeatherDisplay:10.37,2013-02-19 21:36:00,
2013-02-19 16:41:00,58.1,54.6,29.94,North,0,0.0,0.0,88,0.00,CLR,FEW,0.04,WeatherDisplay:10.37,2013-02-19 21:41:00,
2013-02-19 16:46:00,58.1,54.6,29.94,North,0,0.0,0.0,88,0.00,CLR,FEW,0.04,WeatherDisplay:10.37,2013-02-19 21:46:00,
2013-02-19 16:51:00,58.1,54.6,29.94,North,0,0.0,0.0,88,0.00,CLR,FEW,0.04,WeatherDisplay:10.37,2013-02-19 21:51:00,
2013-02-19 16:56:00,58.1,54.9,29.94,North,0,0.0,0.0,89,0.00,CLR,FEW,0.04,WeatherDisplay:10.37,2013-02-19 21:56:00,
2013-02-19 17:01:00,58.1,54.9,29.94,North,0,0.0,0.0,89,0.00,CLR,FEW,0.04,WeatherDisplay:10.37,2013-02-19 22:01:00,
2013-02-19 17:06:00,58.1,54.9,29.94,North,0,0.0,0.0,89,0.00,CLR,FEW,0.04,WeatherDisplay:10.37,2013-02-19 22:06:00,
2013-02-19 17:11:00,58.1,54.9,29.94,North,0,0.0,0.0,89,0.00,CLR,FEW,0.04,WeatherDisplay:10.37,2013-02-19 22:11:00,
2013-02-19 17:16:00,58.1,54.9,29.94,North,0,0.0,0.0,89,0.00,CLR,FEW,0.04,WeatherDisplay:10.37,2013-02-19 22:16:00,
2013-02-19 17:21:00,57.9,54.7,29.94,North,0,0.0,0.0,89,0.00,CLR,FEW,0.04,WeatherDisplay:10.37,2013-02-19 22:21:00,
2013-02-19 17:26:00,57.9,55.0,29.94,North,0,0.0,0.0,90,0.00,CLR,FEW,0.04,WeatherDisplay:10.37,2013-02-19 22:26:00,
2013-02-19 17:31:00,57.9,55.3,29.94,North,0,0.0,0.0,91,0.00,CLR,FEW,0.04,WeatherDisplay:10.37,2013-02-19 22:31:00,
2013-02-19 17:36:00,57.9,55.3,29.94,North,0,0.0,0.0,91,0.00,CLR,FEW,0.04,WeatherDisplay:10.37,2013-02-19 22:36:00,
2013-02-19 17:41:00,57.9,55.3,29.94,North,0,0.0,0.0,91,0.00,CLR,FEW,0.04,WeatherDisplay:10.37,2013-02-19 22:41:00,
2013-02-19 17:46:00,57.9,55.6,29.94,North,0,0.0,0.0,92,0.00,CLR,FEW,0.04,WeatherDisplay:10.37,2013-02-19 22:46:00,
2013-02-19 17:51:00,57.7,55.4,29.94,North,0,0.0,0.0,92,0.00,CLR,FEW,0.04,WeatherDisplay:10.37,2013-02-19 22:51:00,
2013-02-19 17:56:00,57.7,55.4,29.94,North,0,0.0,0.0,92,0.00,CLR,FEW,0.04,WeatherDisplay:10.37,2013-02-19 22:56:00,
2013-02-19 18:01:00,57.7,55.4,29.94,North,0,0.0,0.0,92,0.00,CLR,FEW,0.04,WeatherDisplay:10.37,2013-02-19 23:01:00,
2013-02-19 18:06:00,57.7,55.7,29.94,North,0,0.0,0.0,93,0.00,CLR,FEW,0.04,WeatherDisplay:10.37,2013-02-19 23:06:00,
2013-02-19 18:11:00,57.7,55.7,29.94,North,0,0.0,0.0,93,0.00,CLR,FEW,0.04,WeatherDisplay:10.37,2013-02-19 23:11:00,
2013-02-19 18:16:00,57.7,55.7,29.94,North,0,0.0,0.0,93,0.00,CLR,FEW,0.04,WeatherDisplay:10.37,2013-02-19 23:16:00,
2013-02-19 18:21:00,57.6,55.6,29.94,North,0,0.0,0.0,93,0.00,CLR,FEW,0.04,WeatherDisplay:10.37,2013-02-19 23:21:00,
2013-02-19 18:26:00,57.6,55.8,29.94,North,0,0.0,0.0,94,0.00,CLR,FEW,0.04,WeatherDisplay:10.37,2013-02-19 23:26:00,
2013-02-19 18:31:00,57.6,55.8,29.94,North,0,0.0,0.0,94,0.00,CLR,FEW,0.04,WeatherDisplay:10.37,2013-02-19 23:31:00,
2013-02-19 18:36:00,57.6,55.8,29.94,North,0,0.0,0.0,94,0.00,CLR,FEW,0.04,WeatherDisplay:10.37,2013-02-19 23:36:00,
2013-02-19 18:41:00,57.6,55.8,29.94,North,0,0.0,0.0,94,0.00,CLR,FEW,0.04,WeatherDisplay:10.37,2013-02-19 23:41:00,
2013-02-19 18:46:00,57.6,55.8,29.94,North,0,0.0,0.0,94,0.00,CLR,FEW,0.04,WeatherDisplay:10.37,2013-02-19 23:46:00,
2013-02-19 18:51:00,57.6,55.8,29.94,North,0,0.0,0.0,94,0.00,CLR,FEW,0.04,WeatherDisplay:10.37,2013-02-19 23:51:00,
2013-02-19 18:56:00,57.6,55.8,29.94,North,0,0.0,0.0,94,0.00,CLR,FEW,0.04,WeatherDisplay:10.37,2013-02-19 23:56:00,
2013-02-19 19:01:00,57.6,55.8,29.94,North,0,0.0,0.0,94,0.00,CLR,FEW,0.04,WeatherDisplay:10.37,2013-02-20 00:01:00,
2013-02-19 19:06:00,57.6,55.6,29.94,North,0,0.0,0.0,93,0.00,CLR,FEW,0.04,WeatherDisplay:10.37,2013-02-20 00:06:00,
2013-02-19 19:11:00,57.6,55.6,29.94,North,0,0.0,0.0,93,0.00,CLR,FEW,0.04,WeatherDisplay:10.37,2013-02-20 00:11:00,
2013-02-19 19:16:00,57.6,55.6,29.97,North,0,0.0,0.0,93,0.00,CLR,FEW,0.04,WeatherDisplay:10.37,2013-02-20 00:16:00,
2013-02-19 19:21:00,57.6,55.3,29.97,North,0,0.0,0.0,92,0.00,CLR,FEW,0.04,WeatherDisplay:10.37,2013-02-20 00:21:00,
2013-02-19 19:26:00,57.4,54.5,29.97,North,0,0.0,0.0,90,0.00,CLR,FEW,0.04,WeatherDisplay:10.37,2013-02-20 00:26:00,
2013-02-19 19:31:00,57.2,53.4,29.97,North,0,0.0,0.0,87,0.00,CLR,FEW,0.04,WeatherDisplay:10.37,2013-02-20 00:31:00,
2013-02-19 19:36:00,57.2,52.7,29.97,North,0,0.0,0.0,85,0.00,CLR,FEW,0.04,WeatherDisplay:10.37,2013-02-20 00:36:00,
2013-02-19 19:41:00,57.0,51.9,29.97,North,0,0.0,0.0,83,0.00,CLR,FEW,0.04,WeatherDisplay:10.37,2013-02-20 00:41:00,
2013-02-19 19:46:00,56.8,50.7,29.97,North,0,0.0,0.0,80,0.00,CLR,FEW,0.04,WeatherDisplay:10.37,2013-02-20 00:46:00,
2013-02-19 19:51:00,56.7,49.2,29.97,North,0,0.0,0.0,76,0.00,CLR,FEW,0.04,WeatherDisplay:10.37,2013-02-20 00:51:00,
2013-02-19 19:56:00,56.7,48.8,29.97,North,0,0.0,0.0,75,0.00,CLR,FEW,0.04,WeatherDisplay:10.37,2013-02-20 00:56:00,
2013-02-19 20:01:00,56.7,48.8,29.97,North,0,0.0,0.0,75,0.00,CLR,FEW,0.04,WeatherDisplay:10.37,2013-02-20 01:01:00,
2013-02-19 20:06:00,56.5,48.6,29.97,North,0,0.0,0.0,75,0.00,CLR,FEW,0.04,WeatherDisplay:10.37,2013-02-20 01:06:00,
2013-02-19 20:11:00,56.3,48.8,29.97,North,0,0.0,0.0,76,0.00,CLR,FEW,0.04,WeatherDisplay:10.37,2013-02-20 01:11:00,
2013-02-19 20:16:00,56.3,49.2,29.97,North,0,0.0,0.0,77,0.00,CLR,FEW,0.04,WeatherDisplay:10.37,2013-02-20 01:16:00,
2013-02-19 20:21:00,56.1,49.4,29.97,North,0,0.0,0.0,78,0.00,CLR,FEW,0.04,WeatherDisplay:10.37,2013-02-20 01:21:00,
2013-02-19 20:26:00,56.1,49.7,29.97,North,0,0.0,0.0,79,0.00,CLR,FEW,0.04,WeatherDisplay:10.37,2013-02-20 01:26:00,
2013-02-19 20:31:00,55.9,49.5,29.97,North,0,0.0,0.0,79,0.00,CLR,FEW,0.04,WeatherDisplay:10.37,2013-02-20 01:31:00,
2013-02-19 20:36:00,55.9,49.9,29.97,North,0,0.0,0.0,80,0.00,CLR,FEW,0.04,WeatherDisplay:10.37,2013-02-20 01:36:00,
2013-02-19 20:41:00,55.8,49.3,29.97,North,0,0.0,0.0,79,0.00,CLR,FEW,0.04,WeatherDisplay:10.37,2013-02-20 01:41:00,
2013-02-19 20:46:00,55.6,48.8,29.97,North,0,0.0,0.0,78,0.00,CLR,FEW,0.04,WeatherDisplay:10.37,2013-02-20 01:46:00,
2013-02-19 20:51:00,55.4,48.7,29.97,North,0,0.0,0.0,78,0.00,CLR,FEW,0.04,WeatherDisplay:10.37,2013-02-20 01:51:00,
2013-02-19 20:56:00,55.0,48.3,29.97,North,0,0.0,0.0,78,0.00,CLR,FEW,0.04,WeatherDisplay:10.37,2013-02-20 01:56:00,
2013-02-19 21:01:00,54.9,47.8,30.00,North,0,0.0,0.0,77,0.00,CLR,FEW,0.04,WeatherDisplay:10.37,2013-02-20 02:01:00,
2013-02-19 21:06:00,54.7,47.6,30.00,North,0,0.0,0.0,77,0.00,CLR,FEW,0.04,WeatherDisplay:10.37,2013-02-20 02:06:00,
2013-02-19 21:11:00,54.5,47.1,30.00,North,0,0.0,0.0,76,0.00,CLR,FEW,0.04,WeatherDisplay:10.37,2013-02-20 02:11:00,
2013-02-19 21:16:00,54.1,46.7,30.00,North,0,0.0,0.0,76,0.00,CLR,FEW,0.04,WeatherDisplay:10.37,2013-02-20 02:16:00,
2013-02-19 21:21:00,54.0,46.6,30.00,North,0,0.0,0.0,76,0.00,CLR,FEW,0.04,WeatherDisplay:10.37,2013-02-20 02:21:00,
2013-02-19 21:26:00,53.8,46.0,30.00,North,0,0.0,0.0,75,0.00,CLR,FEW,0.04,WeatherDisplay:10.37,2013-02-20 02:26:00,
2013-02-19 21:31:00,53.6,45.9,30.00,North,0,0.0,0.0,75,0.00,CLR,FEW,0.04,WeatherDisplay:10.37,2013-02-20 02:31:00,
2013-02-19 21:36:00,53.4,45.7,30.00,North,0,0.0,0.0,75,0.00,CLR,FEW,0.04,WeatherDisplay:10.37,2013-02-20 02:36:00,
2013-02-19 21:41:00,53.2,45.5,30.00,North,0,0.0,0.0,75,0.00,CLR,FEW,0.04,WeatherDisplay:10.37,2013-02-20 02:41:00,
2013-02-19 21:46:00,53.1,45.3,30.00,North,0,0.0,0.0,75,0.00,CLR,FEW,0.04,WeatherDisplay:10.37,2013-02-20 02:46:00,
2013-02-19 21:51:00,52.9,45.2,30.00,North,0,0.0,0.0,75,0.00,CLR,FEW,0.04,WeatherDisplay:10.37,2013-02-20 02:51:00,
2013-02-19 21:57:00,52.7,45.3,30.00,North,0,0.0,0.0,76,0.00,CLR,FEW,0.04,WeatherDisplay:10.37,2013-02-20 02:57:00,
2013-02-19 22:02:00,52.7,45.3,30.00,North,0,0.0,0.0,76,0.00,CLR,FEW,0.04,WeatherDisplay:10.37,2013-02-20 03:02:00,
2013-02-19 22:07:00,52.7,45.3,30.00,North,0,0.0,0.0,76,0.00,CLR,FEW,0.04,WeatherDisplay:10.37,2013-02-20 03:07:00,
2013-02-19 22:12:00,52.7,45.3,30.00,North,0,0.0,0.0,76,0.00,CLR,FEW,0.04,WeatherDisplay:10.37,2013-02-20 03:12:00,
2013-02-19 22:17:00,52.7,45.3,30.00,North,0,0.0,0.0,76,0.00,CLR,FEW,0.04,WeatherDisplay:10.37,2013-02-20 03:17:00,
2013-02-19 22:22:00,52.7,45.3,30.00,North,0,0.0,0.0,76,0.00,CLR,FEW,0.04,WeatherDisplay:10.37,2013-02-20 03:22:00,
2013-02-19 22:27:00,52.7,45.3,30.00,North,0,0.0,0.0,76,0.00,CLR,FEW,0.04,WeatherDisplay:10.37,2013-02-20 03:27:00,
2013-02-19 22:32:00,52.7,45.3,30.00,North,0,0.0,0.0,76,0.00,CLR,FEW,0.04,WeatherDisplay:10.37,2013-02-20 03:32:00,
2013-02-19 22:37:00,52.7,45.3,30.00,North,0,0.0,0.0,76,0.00,CLR,FEW,0.04,WeatherDisplay:10.37,2013-02-20 03:37:00,
2013-02-19 22:42:00,52.7,45.3,30.00,North,0,0.0,0.0,76,0.00,CLR,FEW,0.04,WeatherDisplay:10.37,2013-02-20 03:42:00,
2013-02-19 22:47:00,52.7,45.3,30.00,North,0,0.0,0.0,76,0.00,CLR,FEW,0.04,WeatherDisplay:10.37,2013-02-20 03:47:00,
2013-02-19 22:52:00,52.7,45.3,30.00,North,0,0.0,0.0,76,0.00,CLR,FEW,0.04,WeatherDisplay:10.37,2013-02-20 03:52:00,
2013-02-19 22:57:00,52.7,45.3,30.00,North,0,0.0,0.0,76,0.00,CLR,FEW,0.04,WeatherDisplay:10.37,2013-02-20 03:57:00,
2013-02-19 23:02:00,52.7,45.3,30.00,North,0,0.0,0.0,76,0.00,CLR,FEW,0.04,WeatherDisplay:10.37,2013-02-20 04:02:00,
2013-02-19 23:07:00,52.7,45.3,30.00,North,0,0.0,0.0,76,0.00,CLR,FEW,0.04,WeatherDisplay:10.37,2013-02-20 04:07:00,
2013-02-19 23:12:00,52.7,45.3,30.00,North,0,0.0,0.0,76,0.00,CLR,FEW,0.04,WeatherDisplay:10.37,2013-02-20 04:12:00,
2013-02-19 23:17:00,52.7,45.3,30.00,North,0,0.0,0.0,76,0.00,CLR,FEW,0.04,WeatherDisplay:10.37,2013-02-20 04:17:00,
2013-02-19 23:22:00,52.7,45.3,30.00,North,0,0.0,0.0,76,0.00,CLR,FEW,0.04,WeatherDisplay:10.37,2013-02-20 04:22:00,
2013-02-19 23:27:00,52.7,45.3,30.00,North,0,0.0,0.0,76,0.00,CLR,FEW,0.04,WeatherDisplay:10.37,2013-02-20 04:27:00,
2013-02-19 23:32:00,52.7,45.3,30.00,North,0,0.0,0.0,76,0.00,CLR,FEW,0.04,WeatherDisplay:10.37,2013-02-20 04:32:00,
2013-02-19 23:37:00,52.7,45.3,30.00,North,0,0.0,0.0,76,0.00,CLR,FEW,0.04,WeatherDisplay:10.37,2013-02-20 04:37:00,
2013-02-19 23:42:00,52.7,45.3,30.00,North,0,0.0,0.0,76,0.00,CLR,FEW,0.04,WeatherDisplay:10.37,2013-02-20 04:42:00,
2013-02-19 23:47:00,52.7,45.3,30.00,North,0,0.0,0.0,76,0.00,CLR,FEW,0.04,WeatherDisplay:10.37,2013-02-20 04:47:00,
2013-02-19 23:52:00,52.7,45.3,30.00,North,0,0.0,0.0,76,0.00,CLR,FEW,0.04,WeatherDisplay:10.37,2013-02-20 04:52:00,
2013-02-19 23:57:00,52.7,45.3,30.00,North,0,0.0,0.0,76,0.00,CLR,FEW,0.04,WeatherDisplay:10.37,2013-02-20 04:57:00,